sensor_id;sensor_type;location;lat;lon;timestamp;P1;durP1;ratioP1;P2;durP2;ratioP2
62584;SDS011;48643;51.670;5.808;2022-09-03T00:01:08;4.00;;;2.20;;
62584;SDS011;48643;51.670;5.808;2022-09-03T00:03:41;2.65;;;1.90;;
62584;SDS011;48643;51.670;5.808;2022-09-03T00:06:14;4.13;;;2.00;;
62584;SDS011;48643;51.670;5.808;2022-09-03T00:08:44;6.05;;;2.20;;
62584;SDS011;48643;51.670;5.808;2022-09-03T00:11:20;2.72;;;1.90;;
62584;SDS011;48643;51.670;5.808;2022-09-03T00:13:54;3.22;;;2.10;;
62584;SDS011;48643;51.670;5.808;2022-09-03T00:16:24;4.40;;;2.38;;
62584;SDS011;48643;51.670;5.808;2022-09-03T00:18:55;5.28;;;2.20;;
62584;SDS011;48643;51.670;5.808;2022-09-03T00:21:36;6.85;;;2.00;;
62584;SDS011;48643;51.670;5.808;2022-09-03T00:24:05;3.85;;;2.20;;
62584;SDS011;48643;51.670;5.808;2022-09-03T00:26:41;3.63;;;2.20;;
62584;SDS011;48643;51.670;5.808;2022-09-03T00:29:17;2.80;;;2.08;;
62584;SDS011;48643;51.670;5.808;2022-09-03T00:32:06;3.67;;;1.98;;
62584;SDS011;48643;51.670;5.808;2022-09-03T00:34:39;2.53;;;2.00;;
62584;SDS011;48643;51.670;5.808;2022-09-03T00:37:08;4.15;;;2.20;;
62584;SDS011;48643;51.670;5.808;2022-09-03T00:39:40;3.83;;;2.25;;
62584;SDS011;48643;51.670;5.808;2022-09-03T00:42:27;2.95;;;2.03;;
62584;SDS011;48643;51.670;5.808;2022-09-03T00:47:59;3.28;;;1.95;;
62584;SDS011;48643;51.670;5.808;2022-09-03T00:55:50;4.32;;;2.03;;
62584;SDS011;48643;51.670;5.808;2022-09-03T01:00:51;3.80;;;2.10;;
62584;SDS011;48643;51.670;5.808;2022-09-03T01:11:23;2.63;;;2.00;;
62584;SDS011;48643;51.670;5.808;2022-09-03T01:14:01;3.55;;;2.20;;
62584;SDS011;48643;51.670;5.808;2022-09-03T01:16:41;2.83;;;1.98;;
62584;SDS011;48643;51.670;5.808;2022-09-03T01:19:14;3.60;;;2.10;;
62584;SDS011;48643;51.670;5.808;2022-09-03T01:32:26;3.25;;;2.10;;
62584;SDS011;48643;51.670;5.808;2022-09-03T01:37:41;3.30;;;2.10;;
62584;SDS011;48643;51.670;5.808;2022-09-03T01:40:16;3.67;;;2.10;;
62584;SDS011;48643;51.670;5.808;2022-09-03T01:42:54;3.25;;;2.08;;
62584;SDS011;48643;51.670;5.808;2022-09-03T01:45:39;3.17;;;2.15;;
62584;SDS011;48643;51.670;5.808;2022-09-03T01:48:24;2.67;;;2.00;;
62584;SDS011;48643;51.670;5.808;2022-09-03T01:56:38;5.10;;;2.35;;
62584;SDS011;48643;51.670;5.808;2022-09-03T01:59:22;2.90;;;2.10;;
62584;SDS011;48643;51.670;5.808;2022-09-03T02:02:00;2.35;;;2.00;;
62584;SDS011;48643;51.670;5.808;2022-09-03T02:04:29;3.97;;;2.03;;
62584;SDS011;48643;51.670;5.808;2022-09-03T02:06:57;4.95;;;2.13;;
62584;SDS011;48643;51.670;5.808;2022-09-03T02:09:26;2.40;;;1.95;;
62584;SDS011;48643;51.670;5.808;2022-09-03T02:14:31;3.13;;;2.10;;
62584;SDS011;48643;51.670;5.808;2022-09-03T02:16:59;2.90;;;2.10;;
62584;SDS011;48643;51.670;5.808;2022-09-03T02:19:27;3.13;;;2.10;;
62584;SDS011;48643;51.670;5.808;2022-09-03T02:21:55;2.58;;;2.00;;
62584;SDS011;48643;51.670;5.808;2022-09-03T02:24:23;3.08;;;2.00;;
62584;SDS011;48643;51.670;5.808;2022-09-03T02:26:51;3.47;;;2.30;;
62584;SDS011;48643;51.670;5.808;2022-09-03T02:29:19;3.78;;;2.10;;
62584;SDS011;48643;51.670;5.808;2022-09-03T02:31:47;3.35;;;1.92;;
62584;SDS011;48643;51.670;5.808;2022-09-03T02:34:14;3.60;;;2.10;;
62584;SDS011;48643;51.670;5.808;2022-09-03T02:36:43;3.28;;;2.03;;
62584;SDS011;48643;51.670;5.808;2022-09-03T02:39:14;5.20;;;2.28;;
62584;SDS011;48643;51.670;5.808;2022-09-03T02:41:42;4.38;;;1.95;;
62584;SDS011;48643;51.670;5.808;2022-09-03T02:44:20;3.65;;;2.00;;
62584;SDS011;48643;51.670;5.808;2022-09-03T02:46:55;3.10;;;2.10;;
62584;SDS011;48643;51.670;5.808;2022-09-03T02:49:23;2.60;;;2.05;;
62584;SDS011;48643;51.670;5.808;2022-09-03T02:51:50;3.67;;;2.25;;
62584;SDS011;48643;51.670;5.808;2022-09-03T02:54:17;2.60;;;2.00;;
62584;SDS011;48643;51.670;5.808;2022-09-03T02:56:46;3.60;;;2.20;;
62584;SDS011;48643;51.670;5.808;2022-09-03T02:59:15;2.55;;;2.00;;
62584;SDS011;48643;51.670;5.808;2022-09-03T03:01:43;3.28;;;2.13;;
62584;SDS011;48643;51.670;5.808;2022-09-03T03:04:12;4.57;;;2.20;;
62584;SDS011;48643;51.670;5.808;2022-09-03T03:06:39;4.85;;;2.00;;
62584;SDS011;48643;51.670;5.808;2022-09-03T03:09:06;2.35;;;1.92;;
62584;SDS011;48643;51.670;5.808;2022-09-03T03:11:34;2.30;;;1.98;;
62584;SDS011;48643;51.670;5.808;2022-09-03T03:14:02;3.92;;;2.08;;
62584;SDS011;48643;51.670;5.808;2022-09-03T03:16:29;5.85;;;2.10;;
62584;SDS011;48643;51.670;5.808;2022-09-03T03:18:57;4.07;;;2.17;;
62584;SDS011;48643;51.670;5.808;2022-09-03T03:21:25;2.97;;;2.10;;
62584;SDS011;48643;51.670;5.808;2022-09-03T03:23:52;3.55;;;2.33;;
62584;SDS011;48643;51.670;5.808;2022-09-03T03:26:20;4.22;;;2.05;;
62584;SDS011;48643;51.670;5.808;2022-09-03T03:28:50;4.30;;;2.00;;
62584;SDS011;48643;51.670;5.808;2022-09-03T03:31:22;3.00;;;2.05;;
62584;SDS011;48643;51.670;5.808;2022-09-03T03:33:50;3.65;;;2.00;;
62584;SDS011;48643;51.670;5.808;2022-09-03T03:36:18;4.30;;;2.10;;
62584;SDS011;48643;51.670;5.808;2022-09-03T03:38:45;3.10;;;2.15;;
62584;SDS011;48643;51.670;5.808;2022-09-03T03:43:41;2.80;;;2.10;;
62584;SDS011;48643;51.670;5.808;2022-09-03T03:46:08;3.72;;;1.92;;
62584;SDS011;48643;51.670;5.808;2022-09-03T03:48:36;3.50;;;2.10;;
62584;SDS011;48643;51.670;5.808;2022-09-03T03:51:05;2.95;;;2.20;;
62584;SDS011;48643;51.670;5.808;2022-09-03T03:53:33;3.20;;;2.03;;
62584;SDS011;48643;51.670;5.808;2022-09-03T03:56:02;2.78;;;2.10;;
62584;SDS011;48643;51.670;5.808;2022-09-03T03:58:30;2.92;;;2.00;;
62584;SDS011;48643;51.670;5.808;2022-09-03T04:01:14;2.80;;;2.10;;
62584;SDS011;48643;51.670;5.808;2022-09-03T04:03:42;5.43;;;2.05;;
62584;SDS011;48643;51.670;5.808;2022-09-03T04:06:10;3.10;;;2.10;;
62584;SDS011;48643;51.670;5.808;2022-09-03T04:08:39;3.97;;;2.10;;
62584;SDS011;48643;51.670;5.808;2022-09-03T04:11:07;2.92;;;2.00;;
62584;SDS011;48643;51.670;5.808;2022-09-03T04:13:36;3.83;;;2.30;;
62584;SDS011;48643;51.670;5.808;2022-09-03T04:16:08;2.72;;;1.90;;
62584;SDS011;48643;51.670;5.808;2022-09-03T04:18:36;3.60;;;2.00;;
62584;SDS011;48643;51.670;5.808;2022-09-03T04:23:35;2.78;;;2.05;;
62584;SDS011;48643;51.670;5.808;2022-09-03T04:26:03;2.85;;;2.00;;
62584;SDS011;48643;51.670;5.808;2022-09-03T04:28:31;2.60;;;2.05;;
62584;SDS011;48643;51.670;5.808;2022-09-03T04:31:05;3.28;;;2.10;;
62584;SDS011;48643;51.670;5.808;2022-09-03T04:33:34;3.33;;;1.90;;
62584;SDS011;48643;51.670;5.808;2022-09-03T04:38:31;4.05;;;2.40;;
62584;SDS011;48643;51.670;5.808;2022-09-03T04:40:59;2.90;;;2.10;;
62584;SDS011;48643;51.670;5.808;2022-09-03T04:43:27;5.47;;;2.13;;
62584;SDS011;48643;51.670;5.808;2022-09-03T04:45:55;3.33;;;2.20;;
62584;SDS011;48643;51.670;5.808;2022-09-03T04:48:23;2.45;;;1.90;;
62584;SDS011;48643;51.670;5.808;2022-09-03T04:50:51;3.97;;;2.13;;
62584;SDS011;48643;51.670;5.808;2022-09-03T04:53:19;3.25;;;1.98;;
62584;SDS011;48643;51.670;5.808;2022-09-03T04:55:47;3.15;;;2.10;;
62584;SDS011;48643;51.670;5.808;2022-09-03T04:58:15;3.40;;;2.10;;
62584;SDS011;48643;51.670;5.808;2022-09-03T05:00:42;2.85;;;2.00;;
62584;SDS011;48643;51.670;5.808;2022-09-03T05:03:10;3.50;;;2.15;;
62584;SDS011;48643;51.670;5.808;2022-09-03T05:05:37;4.35;;;2.03;;
62584;SDS011;48643;51.670;5.808;2022-09-03T05:08:05;3.50;;;2.08;;
62584;SDS011;48643;51.670;5.808;2022-09-03T05:10:32;4.07;;;2.20;;
62584;SDS011;48643;51.670;5.808;2022-09-03T05:13:00;4.93;;;2.10;;
62584;SDS011;48643;51.670;5.808;2022-09-03T05:15:28;2.60;;;1.90;;
62584;SDS011;48643;51.670;5.808;2022-09-03T05:17:59;3.58;;;2.10;;
62584;SDS011;48643;51.670;5.808;2022-09-03T05:20:27;5.32;;;2.00;;
62584;SDS011;48643;51.670;5.808;2022-09-03T05:22:55;3.53;;;2.17;;
62584;SDS011;48643;51.670;5.808;2022-09-03T05:25:23;2.70;;;2.10;;
62584;SDS011;48643;51.670;5.808;2022-09-03T05:27:50;2.35;;;1.90;;
62584;SDS011;48643;51.670;5.808;2022-09-03T05:30:19;3.85;;;2.08;;
62584;SDS011;48643;51.670;5.808;2022-09-03T05:32:48;4.80;;;2.00;;
62584;SDS011;48643;51.670;5.808;2022-09-03T05:35:16;2.78;;;1.85;;
62584;SDS011;48643;51.670;5.808;2022-09-03T05:37:49;2.35;;;1.77;;
62584;SDS011;48643;51.670;5.808;2022-09-03T05:40:16;3.08;;;2.17;;
62584;SDS011;48643;51.670;5.808;2022-09-03T05:42:43;5.03;;;2.20;;
62584;SDS011;48643;51.670;5.808;2022-09-03T05:45:11;2.22;;;1.80;;
62584;SDS011;48643;51.670;5.808;2022-09-03T05:47:38;3.08;;;1.88;;
62584;SDS011;48643;51.670;5.808;2022-09-03T05:50:06;2.90;;;2.03;;
62584;SDS011;48643;51.670;5.808;2022-09-03T05:52:36;3.65;;;2.00;;
62584;SDS011;48643;51.670;5.808;2022-09-03T05:55:03;3.35;;;2.05;;
62584;SDS011;48643;51.670;5.808;2022-09-03T05:57:31;4.28;;;2.10;;
62584;SDS011;48643;51.670;5.808;2022-09-03T05:59:58;2.92;;;2.00;;
62584;SDS011;48643;51.670;5.808;2022-09-03T06:02:25;4.53;;;2.00;;
62584;SDS011;48643;51.670;5.808;2022-09-03T06:04:53;4.53;;;2.00;;
62584;SDS011;48643;51.670;5.808;2022-09-03T06:07:21;2.78;;;2.15;;
62584;SDS011;48643;51.670;5.808;2022-09-03T06:09:48;2.85;;;2.05;;
62584;SDS011;48643;51.670;5.808;2022-09-03T06:12:15;2.33;;;1.90;;
62584;SDS011;48643;51.670;5.808;2022-09-03T06:14:43;3.47;;;2.20;;
62584;SDS011;48643;51.670;5.808;2022-09-03T06:17:10;3.30;;;2.05;;
62584;SDS011;48643;51.670;5.808;2022-09-03T06:19:38;2.97;;;2.10;;
62584;SDS011;48643;51.670;5.808;2022-09-03T06:22:05;3.97;;;2.05;;
62584;SDS011;48643;51.670;5.808;2022-09-03T06:24:32;2.92;;;1.90;;
62584;SDS011;48643;51.670;5.808;2022-09-03T06:27:00;2.35;;;1.90;;
62584;SDS011;48643;51.670;5.808;2022-09-03T06:29:28;1.70;;;1.60;;
62584;SDS011;48643;51.670;5.808;2022-09-03T06:31:55;4.82;;;1.95;;
62584;SDS011;48643;51.670;5.808;2022-09-03T06:34:23;8.38;;;3.08;;
62584;SDS011;48643;51.670;5.808;2022-09-03T06:36:52;9.32;;;2.95;;
62584;SDS011;48643;51.670;5.808;2022-09-03T06:39:20;7.13;;;2.65;;
62584;SDS011;48643;51.670;5.808;2022-09-03T06:41:47;6.85;;;2.80;;
62584;SDS011;48643;51.670;5.808;2022-09-03T06:44:24;4.93;;;2.63;;
62584;SDS011;48643;51.670;5.808;2022-09-03T06:46:51;6.45;;;2.78;;
62584;SDS011;48643;51.670;5.808;2022-09-03T06:49:18;6.88;;;2.60;;
62584;SDS011;48643;51.670;5.808;2022-09-03T06:51:46;10.00;;;3.00;;
62584;SDS011;48643;51.670;5.808;2022-09-03T06:54:14;10.95;;;2.70;;
62584;SDS011;48643;51.670;5.808;2022-09-03T06:56:41;7.97;;;2.60;;
62584;SDS011;48643;51.670;5.808;2022-09-03T06:59:12;7.82;;;2.78;;
62584;SDS011;48643;51.670;5.808;2022-09-03T07:01:41;4.63;;;2.63;;
62584;SDS011;48643;51.670;5.808;2022-09-03T07:04:11;5.03;;;2.60;;
62584;SDS011;48643;51.670;5.808;2022-09-03T07:06:41;8.60;;;2.90;;
62584;SDS011;48643;51.670;5.808;2022-09-03T07:09:11;7.00;;;2.60;;
62584;SDS011;48643;51.670;5.808;2022-09-03T07:11:40;6.03;;;2.42;;
62584;SDS011;48643;51.670;5.808;2022-09-03T07:14:14;5.15;;;2.60;;
62584;SDS011;48643;51.670;5.808;2022-09-03T07:16:42;6.75;;;2.50;;
62584;SDS011;48643;51.670;5.808;2022-09-03T07:19:11;9.32;;;2.60;;
62584;SDS011;48643;51.670;5.808;2022-09-03T07:21:39;8.32;;;2.47;;
62584;SDS011;48643;51.670;5.808;2022-09-03T07:24:13;6.90;;;2.58;;
62584;SDS011;48643;51.670;5.808;2022-09-03T07:26:41;9.05;;;2.47;;
62584;SDS011;48643;51.670;5.808;2022-09-03T07:29:14;4.47;;;2.55;;
62584;SDS011;48643;51.670;5.808;2022-09-03T07:31:45;7.05;;;2.72;;
62584;SDS011;48643;51.670;5.808;2022-09-03T07:34:12;10.55;;;2.70;;
62584;SDS011;48643;51.670;5.808;2022-09-03T07:36:46;8.07;;;2.50;;
62584;SDS011;48643;51.670;5.808;2022-09-03T07:39:16;6.90;;;2.67;;
62584;SDS011;48643;51.670;5.808;2022-09-03T07:41:44;5.95;;;2.70;;
62584;SDS011;48643;51.670;5.808;2022-09-03T07:44:12;8.07;;;2.60;;
62584;SDS011;48643;51.670;5.808;2022-09-03T07:51:38;8.60;;;2.63;;
62584;SDS011;48643;51.670;5.808;2022-09-03T07:54:06;4.78;;;2.45;;
62584;SDS011;48643;51.670;5.808;2022-09-03T07:56:36;11.57;;;2.40;;
62584;SDS011;48643;51.670;5.808;2022-09-03T07:59:04;9.95;;;2.85;;
62584;SDS011;48643;51.670;5.808;2022-09-03T08:01:31;9.93;;;2.90;;
62584;SDS011;48643;51.670;5.808;2022-09-03T08:03:59;8.80;;;2.72;;
62584;SDS011;48643;51.670;5.808;2022-09-03T08:06:28;4.45;;;2.53;;
62584;SDS011;48643;51.670;5.808;2022-09-03T08:08:56;7.78;;;2.85;;
62584;SDS011;48643;51.670;5.808;2022-09-03T08:11:31;7.78;;;2.88;;
62584;SDS011;48643;51.670;5.808;2022-09-03T08:14:00;5.80;;;2.60;;
62584;SDS011;48643;51.670;5.808;2022-09-03T08:16:29;7.07;;;2.70;;
62584;SDS011;48643;51.670;5.808;2022-09-03T08:18:57;5.63;;;2.40;;
62584;SDS011;48643;51.670;5.808;2022-09-03T08:21:25;10.20;;;2.50;;
62584;SDS011;48643;51.670;5.808;2022-09-03T08:23:53;7.40;;;2.50;;
62584;SDS011;48643;51.670;5.808;2022-09-03T08:26:31;5.75;;;2.67;;
62584;SDS011;48643;51.670;5.808;2022-09-03T08:28:59;8.27;;;2.50;;
62584;SDS011;48643;51.670;5.808;2022-09-03T08:31:27;11.98;;;2.53;;
62584;SDS011;48643;51.670;5.808;2022-09-03T08:33:55;7.85;;;2.30;;
62584;SDS011;48643;51.670;5.808;2022-09-03T08:36:24;7.30;;;2.50;;
62584;SDS011;48643;51.670;5.808;2022-09-03T08:38:52;11.60;;;2.60;;
62584;SDS011;48643;51.670;5.808;2022-09-03T08:41:27;4.93;;;2.40;;
62584;SDS011;48643;51.670;5.808;2022-09-03T08:46:56;11.35;;;2.78;;
62584;SDS011;48643;51.670;5.808;2022-09-03T08:49:30;8.52;;;2.50;;
62584;SDS011;48643;51.670;5.808;2022-09-03T08:51:59;8.02;;;2.95;;
62584;SDS011;48643;51.670;5.808;2022-09-03T08:54:28;7.15;;;2.45;;
62584;SDS011;48643;51.670;5.808;2022-09-03T08:56:58;11.18;;;2.70;;
62584;SDS011;48643;51.670;5.808;2022-09-03T08:59:27;10.00;;;2.60;;
62584;SDS011;48643;51.670;5.808;2022-09-03T09:05:08;10.43;;;2.85;;
62584;SDS011;48643;51.670;5.808;2022-09-03T09:10:25;12.05;;;2.67;;
62584;SDS011;48643;51.670;5.808;2022-09-03T09:15:42;7.65;;;2.50;;
62584;SDS011;48643;51.670;5.808;2022-09-03T09:23:47;9.13;;;2.50;;
62584;SDS011;48643;51.670;5.808;2022-09-03T09:26:16;5.75;;;2.55;;
62584;SDS011;48643;51.670;5.808;2022-09-03T09:28:44;13.35;;;2.60;;
62584;SDS011;48643;51.670;5.808;2022-09-03T09:31:16;8.32;;;2.40;;
62584;SDS011;48643;51.670;5.808;2022-09-03T09:33:47;8.82;;;2.58;;
62584;SDS011;48643;51.670;5.808;2022-09-03T09:36:15;9.75;;;2.30;;
62584;SDS011;48643;51.670;5.808;2022-09-03T09:38:45;10.40;;;2.70;;
62584;SDS011;48643;51.670;5.808;2022-09-03T09:41:15;5.85;;;2.10;;
62584;SDS011;48643;51.670;5.808;2022-09-03T09:43:45;11.27;;;2.38;;
62584;SDS011;48643;51.670;5.808;2022-09-03T09:46:20;8.38;;;2.10;;
62584;SDS011;48643;51.670;5.808;2022-09-03T09:48:51;9.20;;;2.30;;
62584;SDS011;48643;51.670;5.808;2022-09-03T09:51:24;8.85;;;1.95;;
62584;SDS011;48643;51.670;5.808;2022-09-03T09:56:31;13.20;;;2.33;;
62584;SDS011;48643;51.670;5.808;2022-09-03T09:59:02;12.02;;;2.35;;
62584;SDS011;48643;51.670;5.808;2022-09-03T10:01:30;9.77;;;2.20;;
62584;SDS011;48643;51.670;5.808;2022-09-03T10:03:59;11.65;;;2.60;;
62584;SDS011;48643;51.670;5.808;2022-09-03T10:06:27;9.82;;;2.10;;
62584;SDS011;48643;51.670;5.808;2022-09-03T10:09:16;8.27;;;2.35;;
62584;SDS011;48643;51.670;5.808;2022-09-03T10:11:47;11.75;;;2.40;;
62584;SDS011;48643;51.670;5.808;2022-09-03T10:22:39;5.35;;;2.05;;
62584;SDS011;48643;51.670;5.808;2022-09-03T10:25:24;6.28;;;2.00;;
62584;SDS011;48643;51.670;5.808;2022-09-03T10:27:53;7.82;;;2.15;;
62584;SDS011;48643;51.670;5.808;2022-09-03T10:30:25;4.20;;;2.05;;
62584;SDS011;48643;51.670;5.808;2022-09-03T10:38:04;3.78;;;2.00;;
62584;SDS011;48643;51.670;5.808;2022-09-03T10:43:17;6.80;;;1.80;;
62584;SDS011;48643;51.670;5.808;2022-09-03T10:45:55;4.43;;;1.98;;
62584;SDS011;48643;51.670;5.808;2022-09-03T10:51:04;2.95;;;1.80;;
62584;SDS011;48643;51.670;5.808;2022-09-03T10:56:30;5.13;;;2.00;;
62584;SDS011;48643;51.670;5.808;2022-09-03T11:04:35;6.00;;;2.10;;
62584;SDS011;48643;51.670;5.808;2022-09-03T11:07:06;5.13;;;2.20;;
62584;SDS011;48643;51.670;5.808;2022-09-03T11:12:04;4.80;;;1.92;;
62584;SDS011;48643;51.670;5.808;2022-09-03T11:17:10;4.80;;;1.90;;
62584;SDS011;48643;51.670;5.808;2022-09-03T11:19:44;2.88;;;1.80;;
62584;SDS011;48643;51.670;5.808;2022-09-03T11:22:16;3.97;;;1.90;;
62584;SDS011;48643;51.670;5.808;2022-09-03T11:24:48;4.30;;;1.80;;
62584;SDS011;48643;51.670;5.808;2022-09-03T11:29:55;2.93;;;1.90;;
62584;SDS011;48643;51.670;5.808;2022-09-03T11:32:25;2.58;;;1.70;;
62584;SDS011;48643;51.670;5.808;2022-09-03T11:34:55;3.90;;;1.90;;
62584;SDS011;48643;51.670;5.808;2022-09-03T11:37:26;2.53;;;1.75;;
62584;SDS011;48643;51.670;5.808;2022-09-03T11:40:05;3.17;;;1.80;;
62584;SDS011;48643;51.670;5.808;2022-09-03T11:42:37;3.13;;;1.80;;
62584;SDS011;48643;51.670;5.808;2022-09-03T11:45:23;4.85;;;1.85;;
62584;SDS011;48643;51.670;5.808;2022-09-03T11:48:00;3.03;;;1.75;;
62584;SDS011;48643;51.670;5.808;2022-09-03T11:50:28;3.88;;;1.80;;
62584;SDS011;48643;51.670;5.808;2022-09-03T11:53:07;4.40;;;1.80;;
62584;SDS011;48643;51.670;5.808;2022-09-03T11:55:48;4.13;;;1.73;;
62584;SDS011;48643;51.670;5.808;2022-09-03T11:58:57;2.28;;;1.75;;
62584;SDS011;48643;51.670;5.808;2022-09-03T12:01:13;4.68;;;1.92;;
62584;SDS011;48643;51.670;5.808;2022-09-03T12:03:47;4.38;;;2.10;;
62584;SDS011;48643;51.670;5.808;2022-09-03T12:14:19;7.03;;;2.45;;
62584;SDS011;48643;51.670;5.808;2022-09-03T12:19:23;6.93;;;2.50;;
62584;SDS011;48643;51.670;5.808;2022-09-03T12:21:51;3.97;;;2.45;;
62584;SDS011;48643;51.670;5.808;2022-09-03T12:24:21;9.77;;;2.40;;
62584;SDS011;48643;51.670;5.808;2022-09-03T12:26:54;6.43;;;2.30;;
62584;SDS011;48643;51.670;5.808;2022-09-03T12:29:26;6.90;;;2.50;;
62584;SDS011;48643;51.670;5.808;2022-09-03T12:32:04;8.32;;;2.42;;
62584;SDS011;48643;51.670;5.808;2022-09-03T12:34:32;6.22;;;2.50;;
62584;SDS011;48643;51.670;5.808;2022-09-03T12:36:59;9.82;;;2.40;;
62584;SDS011;48643;51.670;5.808;2022-09-03T12:39:27;11.93;;;2.60;;
62584;SDS011;48643;51.670;5.808;2022-09-03T12:42:19;7.45;;;2.60;;
62584;SDS011;48643;51.670;5.808;2022-09-03T12:44:47;10.77;;;2.33;;
62584;SDS011;48643;51.670;5.808;2022-09-03T12:47:18;5.15;;;2.50;;
62584;SDS011;48643;51.670;5.808;2022-09-03T12:50:08;7.65;;;2.90;;
62584;SDS011;48643;51.670;5.808;2022-09-03T12:52:38;9.40;;;3.63;;
62584;SDS011;48643;51.670;5.808;2022-09-03T12:55:28;9.43;;;3.70;;
62584;SDS011;48643;51.670;5.808;2022-09-03T13:00:23;6.28;;;2.75;;
62584;SDS011;48643;51.670;5.808;2022-09-03T13:02:52;9.23;;;2.33;;
62584;SDS011;48643;51.670;5.808;2022-09-03T13:05:33;8.63;;;2.90;;
62584;SDS011;48643;51.670;5.808;2022-09-03T13:08:03;6.18;;;2.17;;
62584;SDS011;48643;51.670;5.808;2022-09-03T13:10:33;16.50;;;2.38;;
62584;SDS011;48643;51.670;5.808;2022-09-03T13:13:07;13.30;;;2.40;;
62584;SDS011;48643;51.670;5.808;2022-09-03T13:15:46;5.97;;;2.70;;
62584;SDS011;48643;51.670;5.808;2022-09-03T13:18:26;6.65;;;2.33;;
62584;SDS011;48643;51.670;5.808;2022-09-03T13:23:51;6.63;;;2.70;;
62584;SDS011;48643;51.670;5.808;2022-09-03T13:33:49;7.85;;;2.40;;
62584;SDS011;48643;51.670;5.808;2022-09-03T13:36:54;6.05;;;2.42;;
62584;SDS011;48643;51.670;5.808;2022-09-03T13:39:21;10.52;;;2.72;;
62584;SDS011;48643;51.670;5.808;2022-09-03T13:42:12;5.43;;;2.47;;
62584;SDS011;48643;51.670;5.808;2022-09-03T13:44:41;7.95;;;2.38;;
62584;SDS011;48643;51.670;5.808;2022-09-03T13:47:21;6.18;;;2.40;;
62584;SDS011;48643;51.670;5.808;2022-09-03T13:53:08;6.63;;;2.33;;
62584;SDS011;48643;51.670;5.808;2022-09-03T13:55:43;5.03;;;2.25;;
62584;SDS011;48643;51.670;5.808;2022-09-03T13:58:20;8.05;;;2.55;;
62584;SDS011;48643;51.670;5.808;2022-09-03T14:01:01;5.43;;;2.40;;
62584;SDS011;48643;51.670;5.808;2022-09-03T14:08:34;6.28;;;2.42;;
62584;SDS011;48643;51.670;5.808;2022-09-03T14:11:22;8.57;;;2.83;;
62584;SDS011;48643;51.670;5.808;2022-09-03T14:22:13;6.25;;;2.33;;
62584;SDS011;48643;51.670;5.808;2022-09-03T14:27:23;3.90;;;2.40;;
62584;SDS011;48643;51.670;5.808;2022-09-03T14:29:58;6.70;;;2.25;;
62584;SDS011;48643;51.670;5.808;2022-09-03T14:35:18;7.07;;;2.50;;
62584;SDS011;48643;51.670;5.808;2022-09-03T14:43:06;7.63;;;2.47;;
62584;SDS011;48643;51.670;5.808;2022-09-03T14:56:25;4.40;;;2.28;;
62584;SDS011;48643;51.670;5.808;2022-09-03T15:01:39;5.85;;;2.53;;
62584;SDS011;48643;51.670;5.808;2022-09-03T15:09:38;12.73;;;2.60;;
62584;SDS011;48643;51.670;5.808;2022-09-03T15:14:48;10.85;;;2.70;;
62584;SDS011;48643;51.670;5.808;2022-09-03T15:20:02;6.55;;;2.60;;
62584;SDS011;48643;51.670;5.808;2022-09-03T15:25:21;9.88;;;2.80;;
62584;SDS011;48643;51.670;5.808;2022-09-03T15:30:21;7.40;;;2.65;;
62584;SDS011;48643;51.670;5.808;2022-09-03T15:33:02;10.37;;;2.97;;
62584;SDS011;48643;51.670;5.808;2022-09-03T15:40:54;5.78;;;2.70;;
62584;SDS011;48643;51.670;5.808;2022-09-03T15:43:30;9.07;;;2.67;;
62584;SDS011;48643;51.670;5.808;2022-09-03T15:46:02;26.15;;;3.20;;
62584;SDS011;48643;51.670;5.808;2022-09-03T15:48:37;20.48;;;2.80;;
62584;SDS011;48643;51.670;5.808;2022-09-03T15:53:59;16.70;;;2.88;;
62584;SDS011;48643;51.670;5.808;2022-09-03T16:12:34;7.13;;;2.42;;
62584;SDS011;48643;51.670;5.808;2022-09-03T16:20:24;6.47;;;2.42;;
62584;SDS011;48643;51.670;5.808;2022-09-03T16:25:43;7.25;;;2.28;;
62584;SDS011;48643;51.670;5.808;2022-09-03T16:28:17;3.97;;;2.10;;
62584;SDS011;48643;51.670;5.808;2022-09-03T16:33:39;3.58;;;2.17;;
62584;SDS011;48643;51.670;5.808;2022-09-03T16:41:25;6.82;;;2.50;;
62584;SDS011;48643;51.670;5.808;2022-09-03T16:46:51;6.68;;;2.10;;
62584;SDS011;48643;51.670;5.808;2022-09-03T17:00:04;5.32;;;1.90;;
62584;SDS011;48643;51.670;5.808;2022-09-03T17:10:59;4.03;;;2.20;;
62584;SDS011;48643;51.670;5.808;2022-09-03T17:21:38;4.07;;;2.15;;
62584;SDS011;48643;51.670;5.808;2022-09-03T17:26:59;8.52;;;3.22;;
62584;SDS011;48643;51.670;5.808;2022-09-03T17:32:26;7.75;;;3.30;;
62584;SDS011;48643;51.670;5.808;2022-09-03T17:35:15;10.18;;;3.50;;
62584;SDS011;48643;51.670;5.808;2022-09-03T17:45:52;9.70;;;4.18;;
62584;SDS011;48643;51.670;5.808;2022-09-03T17:50:51;12.60;;;3.85;;
62584;SDS011;48643;51.670;5.808;2022-09-03T17:53:21;10.32;;;4.13;;
62584;SDS011;48643;51.670;5.808;2022-09-03T17:55:54;10.23;;;3.90;;
62584;SDS011;48643;51.670;5.808;2022-09-03T18:06:20;9.52;;;3.88;;
62584;SDS011;48643;51.670;5.808;2022-09-03T18:09:18;12.52;;;3.53;;
62584;SDS011;48643;51.670;5.808;2022-09-03T18:11:49;7.85;;;3.25;;
62584;SDS011;48643;51.670;5.808;2022-09-03T18:14:33;5.72;;;3.20;;
62584;SDS011;48643;51.670;5.808;2022-09-03T18:19:32;8.82;;;3.70;;
62584;SDS011;48643;51.670;5.808;2022-09-03T18:22:20;9.38;;;3.70;;
62584;SDS011;48643;51.670;5.808;2022-09-03T18:25:07;6.32;;;4.25;;
62584;SDS011;48643;51.670;5.808;2022-09-03T18:27:55;11.73;;;3.90;;
62584;SDS011;48643;51.670;5.808;2022-09-03T18:30:42;11.63;;;4.15;;
62584;SDS011;48643;51.670;5.808;2022-09-03T18:33:28;8.05;;;4.25;;
62584;SDS011;48643;51.670;5.808;2022-09-03T18:36:14;13.30;;;4.00;;
62584;SDS011;48643;51.670;5.808;2022-09-03T18:39:11;6.60;;;4.25;;
62584;SDS011;48643;51.670;5.808;2022-09-03T18:42:12;8.70;;;4.80;;
62584;SDS011;48643;51.670;5.808;2022-09-03T18:47:52;10.20;;;4.85;;
62584;SDS011;48643;51.670;5.808;2022-09-03T18:50:47;12.63;;;4.97;;
62584;SDS011;48643;51.670;5.808;2022-09-03T18:59:36;9.73;;;4.97;;
62584;SDS011;48643;51.670;5.808;2022-09-03T19:05:16;13.48;;;5.50;;
62584;SDS011;48643;51.670;5.808;2022-09-03T19:08:11;13.75;;;5.93;;
62584;SDS011;48643;51.670;5.808;2022-09-03T19:11:06;18.67;;;5.70;;
62584;SDS011;48643;51.670;5.808;2022-09-03T19:13:53;15.35;;;5.50;;
62584;SDS011;48643;51.670;5.808;2022-09-03T19:19:44;10.55;;;5.50;;
62584;SDS011;48643;51.670;5.808;2022-09-03T19:25:24;7.43;;;5.43;;
62584;SDS011;48643;51.670;5.808;2022-09-03T19:28:12;18.05;;;5.47;;
62584;SDS011;48643;51.670;5.808;2022-09-03T19:36:43;8.60;;;5.57;;
62584;SDS011;48643;51.670;5.808;2022-09-03T19:45:31;11.90;;;6.22;;
62584;SDS011;48643;51.670;5.808;2022-09-03T19:53:55;8.63;;;5.60;;
62584;SDS011;48643;51.670;5.808;2022-09-03T19:56:44;12.52;;;6.35;;
62584;SDS011;48643;51.670;5.808;2022-09-03T19:59:32;11.18;;;6.60;;
62584;SDS011;48643;51.670;5.808;2022-09-03T20:02:19;14.30;;;6.55;;
62584;SDS011;48643;51.670;5.808;2022-09-03T20:05:06;12.82;;;6.78;;
62584;SDS011;48643;51.670;5.808;2022-09-03T20:07:53;14.93;;;6.93;;
62584;SDS011;48643;51.670;5.808;2022-09-03T20:10:40;11.98;;;6.93;;
62584;SDS011;48643;51.670;5.808;2022-09-03T20:26:26;20.48;;;6.63;;
62584;SDS011;48643;51.670;5.808;2022-09-03T20:29:09;14.70;;;7.13;;
62584;SDS011;48643;51.670;5.808;2022-09-03T20:36:56;14.70;;;7.80;;
62584;SDS011;48643;51.670;5.808;2022-09-03T20:47:25;16.77;;;9.02;;
62584;SDS011;48643;51.670;5.808;2022-09-03T20:50:03;13.57;;;7.50;;
62584;SDS011;48643;51.670;5.808;2022-09-03T20:55:21;14.73;;;8.70;;
62584;SDS011;48643;51.670;5.808;2022-09-03T20:57:56;16.77;;;8.52;;
62584;SDS011;48643;51.670;5.808;2022-09-03T21:00:24;14.50;;;8.52;;
62584;SDS011;48643;51.670;5.808;2022-09-03T21:05:27;17.52;;;9.00;;
62584;SDS011;48643;51.670;5.808;2022-09-03T21:08:06;13.93;;;9.13;;
62584;SDS011;48643;51.670;5.808;2022-09-03T21:16:13;39.85;;;10.32;;